Time;durP1;ratioP1;P1;durP2;ratioP2;P2;SDS_P1;SDS_P2;PMS_P1;PMS_P2;Temp;Humidity;BMP_temperature;BMP_pressure;BME280_temperature;BME280_humidity;BME280_pressure;Samples;Min_cycle;Max_cycle;Signal;HPM_P1;HPM_P2
2021/06/04 00:01:01;;;;;;;11.77;7.45;;;;;;;22.51;39.39;102041.19;4168580;28;20037;-46
2021/06/04 00:03:14;;;;;;;11.70;7.50;;;;;;;22.20;40.36;102035.53;4171960;28;20041;-45
2021/06/04 00:05:16;;;;;;;8.65;6.82;;;;;;;22.24;40.06;102026.34;4169383;28;20074;-44
2021/06/04 00:07:17;;;;;;;12.70;7.22;;;;;;;22.53;39.87;102027.81;4166185;28;20395;-45
2021/06/04 00:09:18;;;;;;;8.20;6.25;;;;;;;22.47;39.70;102013.00;4169164;28;20052;-46
2021/06/04 00:11:29;;;;;;;11.10;7.00;;;;;;;22.39;39.78;102039.50;4167731;28;20484;-46
2021/06/04 00:13:40;;;;;;;10.10;5.85;;;;;;;22.40;40.09;102035.59;4165111;28;20079;-45
2021/06/04 00:15:40;;;;;;;12.48;8.30;;;;;;;22.23;40.12;102035.00;4163482;28;20032;-45
2021/06/04 00:17:42;;;;;;;13.45;7.47;;;;;;;22.24;40.38;102037.50;4166804;28;20029;-45
2021/06/04 00:19:43;;;;;;;9.13;6.60;;;;;;;22.33;40.15;102039.75;4163593;28;20029;-45
2021/06/04 00:21:49;;;;;;;9.70;6.60;;;;;;;22.38;39.62;102028.59;4162585;28;20045;-44
2021/06/04 00:23:51;;;;;;;11.43;7.13;;;;;;;22.05;40.27;102028.75;4167384;28;20032;-48
2021/06/04 00:25:52;;;;;;;12.25;6.55;;;;;;;22.37;39.67;102030.56;4162647;28;20057;-45
2021/06/04 00:27:52;;;;;;;13.07;7.18;;;;;;;22.26;39.91;102032.50;4165553;28;20487;-44
2021/06/04 00:29:53;;;;;;;12.82;7.90;;;;;;;22.12;40.14;102019.31;4167210;28;20037;-46
2021/06/04 00:31:54;;;;;;;12.75;7.10;;;;;;;21.98;40.82;102025.41;4162548;28;20427;-46
2021/06/04 00:33:56;;;;;;;10.25;7.35;;;;;;;21.84;40.77;102021.38;4166729;28;20451;-46
2021/06/04 00:35:57;;;;;;;10.88;6.50;;;;;;;22.11;40.49;102021.28;4164695;28;20025;-45
2021/06/04 00:37:58;;;;;;;9.52;6.80;;;;;;;21.96;40.72;102027.59;4166800;28;20028;-45
2021/06/04 00:39:58;;;;;;;8.50;6.03;;;;;;;22.34;39.77;102031.13;4170110;28;20064;-51
2021/06/04 00:42:21;;;;;;;10.65;5.88;;;;;;;22.72;39.34;102036.53;4164103;28;20053;-46
2021/06/04 00:44:24;;;;;;;11.35;6.38;;;;;;;22.44;39.64;102030.28;4164921;28;20051;-47
2021/06/04 00:46:25;;;;;;;9.00;6.68;;;;;;;22.01;40.49;102049.09;4157104;28;20083;-47
2021/06/04 00:48:27;;;;;;;9.90;7.40;;;;;;;21.94;40.47;102032.59;4167061;28;20041;-47
2021/06/04 00:50:36;;;;;;;8.77;6.05;;;;;;;22.45;39.64;102043.16;4167804;28;20171;-48
2021/06/04 00:52:38;;;;;;;9.20;6.80;;;;;;;22.19;40.38;102056.16;4165904;28;20435;-49
2021/06/04 00:54:40;;;;;;;10.70;6.85;;;;;;;22.35;39.96;102052.28;4170919;28;20059;-46
2021/06/04 00:56:41;;;;;;;10.18;7.05;;;;;;;22.28;39.97;102054.53;4167974;28;20025;-48
2021/06/04 00:58:45;;;;;;;8.07;6.78;;;;;;;21.91;40.61;102038.72;4168087;28;20722;-46
2021/06/04 01:00:50;;;;;;;11.07;7.43;;;;;;;21.83;41.10;102059.56;4170814;28;20055;-49
2021/06/04 01:02:52;;;;;;;9.38;5.90;;;;;;;22.31;40.05;102048.41;4174243;28;20029;-48
2021/06/04 01:04:53;;;;;;;10.93;7.63;;;;;;;22.30;39.81;102043.09;4172786;28;20106;-46
2021/06/04 01:07:10;;;;;;;9.25;7.25;;;;;;;22.31;39.84;102055.94;4168846;28;20737;-46
2021/06/04 01:09:27;;;;;;;10.05;6.70;;;;;;;22.43;39.65;102062.09;4163756;28;20471;-45
2021/06/04 01:11:56;;;;;;;9.23;6.28;;;;;;;22.51;39.44;102046.75;4168518;28;20077;-48
2021/06/04 01:14:47;;;;;;;14.20;7.22;;;;;;;22.14;40.33;102056.97;4160271;28;20060;-48
2021/06/04 01:17:07;;;;;;;7.25;5.45;;;;;;;22.41;39.78;102054.00;4128306;28;20048;-49
2021/06/04 01:19:42;;;;;;;10.38;7.80;;;;;;;22.12;40.13;102050.84;4173149;28;20086;-48
2021/06/04 01:21:50;;;;;;;10.00;6.75;;;;;;;22.39;39.85;102056.22;4169159;28;20029;-45
2021/06/04 01:24:38;;;;;;;14.57;8.90;;;;;;;21.65;41.04;102046.91;4168240;28;20588;-47
2021/06/04 01:26:48;;;;;;;10.63;7.47;;;;;;;22.01;40.37;102058.31;4110269;28;20925;-47
2021/06/04 01:28:53;;;;;;;12.80;8.00;;;;;;;21.78;40.85;102041.97;4175150;28;20043;-46
2021/06/04 01:31:11;;;;;;;11.20;7.30;;;;;;;21.69;41.49;102055.59;4169957;28;20033;-49
2021/06/04 01:33:16;;;;;;;13.25;7.72;;;;;;;21.94;40.55;102054.91;4167319;28;20040;-47
2021/06/04 01:35:23;;;;;;;11.52;7.97;;;;;;;21.78;40.86;102050.34;4164426;28;20013;-47
2021/06/04 01:37:27;;;;;;;11.38;7.43;;;;;;;21.69;40.89;102033.31;4164686;28;20041;-47
2021/06/04 01:39:34;;;;;;;9.07;5.90;;;;;;;22.34;39.88;102047.84;4166818;28;20716;-51
2021/06/04 01:41:36;;;;;;;8.05;5.75;;;;;;;22.45;39.23;102040.34;4169750;28;20048;-47
2021/06/04 01:43:41;;;;;;;12.68;7.90;;;;;;;21.94;40.20;102046.53;4172244;28;20029;-47
2021/06/04 01:45:46;;;;;;;8.88;6.90;;;;;;;21.93;40.47;102042.06;4170227;28;20154;-49
2021/06/04 01:47:54;;;;;;;9.95;7.03;;;;;;;22.02;40.27;102040.47;4165442;28;20727;-46
2021/06/04 01:49:59;;;;;;;9.63;6.38;;;;;;;22.23;39.84;102037.78;4167141;28;20036;-49
2021/06/04 01:52:07;;;;;;;13.88;7.15;;;;;;;21.84;40.65;102038.09;4165800;28;20111;-47
2021/06/04 01:54:26;;;;;;;7.50;5.65;;;;;;;22.00;40.50;102039.06;4170765;28;20056;-46
2021/06/04 01:56:28;;;;;;;7.55;5.32;;;;;;;22.31;39.84;102042.00;4166424;28;20083;-47
2021/06/04 01:58:37;;;;;;;8.35;5.95;;;;;;;21.98;40.33;102021.75;4168698;28;20024;-46
2021/06/04 02:01:07;;;;;;;7.47;5.85;;;;;;;21.90;40.38;102023.09;4175455;28;20475;-48
2021/06/04 02:03:11;;;;;;;7.78;5.22;;;;;;;22.43;39.64;102029.47;4167354;28;20033;-49
2021/06/04 02:05:13;;;;;;;8.10;5.60;;;;;;;22.48;39.58;102030.56;4170838;28;20025;-45
2021/06/04 02:07:18;;;;;;;6.45;5.13;;;;;;;22.32;39.76;102033.34;4167467;28;20131;-47
2021/06/04 02:09:22;;;;;;;10.80;6.85;;;;;;;21.87;40.76;102018.06;4166774;28;20029;-46
2021/06/04 02:11:27;;;;;;;10.13;6.07;;;;;;;21.99;40.49;102021.50;4170853;28;20071;-44
2021/06/04 02:13:27;;;;;;;10.43;6.22;;;;;;;22.24;39.66;102017.13;4169124;28;20034;-47
2021/06/04 02:15:34;;;;;;;8.23;6.13;;;;;;;22.20;39.64;102019.63;4167888;28;20486;-48
2021/06/04 02:17:52;;;;;;;10.38;6.65;;;;;;;21.90;40.44;102017.50;4165112;28;20021;-45
2021/06/04 02:20:03;;;;;;;7.63;5.85;;;;;;;21.80;40.67;102009.13;4167947;28;20108;-46
2021/06/04 02:22:16;;;;;;;9.88;6.70;;;;;;;22.09;40.16;102023.50;4164697;28;20144;-49
2021/06/04 02:24:53;;;;;;;15.95;6.43;;;;;;;21.58;41.13;102015.69;4163957;28;20099;-45
2021/06/04 02:27:18;;;;;;;8.38;5.10;;;;;;;22.16;39.93;102026.84;4166239;28;20033;-44
2021/06/04 02:29:27;;;;;;;8.27;5.57;;;;;;;21.89;40.54;102027.00;4168509;28;20029;-48
2021/06/04 02:31:38;;;;;;;6.18;5.03;;;;;;;22.13;40.01;102019.03;4168472;28;20025;-46
2021/06/04 02:33:47;;;;;;;9.93;5.65;;;;;;;22.07;40.28;102025.72;4162343;28;20032;-47
2021/06/04 02:35:59;;;;;;;7.38;5.47;;;;;;;21.99;40.25;102012.31;4167114;28;20115;-49
2021/06/04 02:38:09;;;;;;;9.75;5.85;;;;;;;22.11;40.12;102021.28;4175275;28;20028;-47
2021/06/04 02:40:16;;;;;;;;;;;;;;;21.76;40.79;102025.53;4169709;28;20124;-45
2021/06/04 02:42:22;;;;;;;9.10;6.15;;;;;;;21.96;39.96;102010.84;4168450;28;19923;-49
2021/06/04 02:44:28;;;;;;;10.02;6.55;;;;;;;21.72;40.82;102033.59;4167856;28;20035;-48
2021/06/04 02:46:36;;;;;;;10.13;6.90;;;;;;;21.40;41.19;102021.69;4158482;28;20037;-45
2021/06/04 02:48:37;;;;;;;11.65;6.82;;;;;;;21.72;40.45;102024.41;4167890;28;20537;-46
2021/06/04 02:50:43;;;;;;;11.27;6.57;;;;;;;21.50;40.72;102013.38;4169104;28;20052;-45
2021/06/04 02:52:45;;;;;;;11.20;6.90;;;;;;;21.58;40.82;102017.63;4167651;28;20029;-46
2021/06/04 02:54:45;;;;;;;9.35;6.25;;;;;;;21.76;40.76;102031.09;4173238;28;20037;-49
2021/06/04 02:56:49;;;;;;;11.88;7.47;;;;;;;21.38;40.98;102030.31;4168810;28;20061;-49
2021/06/04 02:59:01;;;;;;;11.35;7.38;;;;;;;21.16;41.49;102024.81;4169534;28;20036;-48
2021/06/04 03:01:03;;;;;;;10.98;7.28;;;;;;;21.32;41.27;102025.81;4162332;28;20465;-46
2021/06/04 03:03:04;;;;;;;13.25;7.18;;;;;;;21.24;41.31;102004.84;4169036;28;20089;-46
2021/06/04 03:05:15;;;;;;;13.10;6.80;;;;;;;21.47;40.98;102023.13;4163801;28;20392;-49
2021/06/04 03:07:23;;;;;;;9.65;6.20;;;;;;;21.81;40.41;102022.78;4163069;28;20074;-48
2021/06/04 03:09:28;;;;;;;12.63;7.32;;;;;;;21.44;40.94;102028.38;4168534;28;20040;-46
2021/06/04 03:11:31;;;;;;;10.18;6.60;;;;;;;21.47;40.70;102022.28;4171796;28;20029;-47
2021/06/04 03:13:35;;;;;;;12.60;8.55;;;;;;;21.30;41.39;102030.78;4169192;28;20130;-48
2021/06/04 03:15:44;;;;;;;12.02;7.00;;;;;;;21.26;41.00;102010.97;4166157;28;20025;-47
2021/06/04 03:17:44;;;;;;;8.32;6.10;;;;;;;22.02;39.81;102045.22;4172772;28;20029;-45
2021/06/04 03:19:45;;;;;;;13.07;7.68;;;;;;;21.74;40.47;102047.25;4167144;28;20040;-44
2021/06/04 03:21:50;;;;;;;14.55;6.78;;;;;;;21.67;40.38;102047.50;4169011;28;20088;-46
2021/06/04 03:23:51;;;;;;;11.38;6.60;;;;;;;21.73;40.49;102037.22;4167445;28;20067;-44
2021/06/04 03:25:54;;;;;;;13.60;7.45;;;;;;;21.29;40.93;102032.75;4160917;28;20052;-45
2021/06/04 03:27:55;;;;;;;10.30;6.70;;;;;;;21.43;40.91;102033.13;4175254;28;20060;-44
2021/06/04 03:29:55;;;;;;;11.35;7.18;;;;;;;21.64;40.72;102022.09;4164831;28;20024;-46
2021/06/04 03:31:59;;;;;;;11.43;7.30;;;;;;;21.56;40.45;102020.66;4176380;28;20085;-46
2021/06/04 03:34:01;;;;;;;11.60;7.45;;;;;;;21.37;40.94;102035.03;4164674;28;20140;-48
2021/06/04 03:36:06;;;;;;;10.70;7.93;;;;;;;21.19;41.59;102027.91;4165803;28;20041;-46
2021/06/04 03:38:06;;;;;;;12.05;6.78;;;;;;;21.46;41.19;102037.34;4172757;28;20032;-46
2021/06/04 03:40:11;;;;;;;10.65;6.75;;;;;;;21.52;40.62;102031.53;4165952;28;20416;-47
2021/06/04 03:42:18;;;;;;;7.45;5.75;;;;;;;22.06;39.67;102024.88;4169055;28;20649;-46
2021/06/04 03:44:21;;;;;;;10.43;6.72;;;;;;;21.88;39.88;102025.31;4165988;28;20395;-48
2021/06/04 03:46:22;;;;;;;10.40;6.53;;;;;;;21.55;40.78;102031.00;4170093;28;20029;-49
2021/06/04 03:48:28;;;;;;;11.30;6.57;;;;;;;21.71;40.34;102022.72;4166961;28;20567;-46
2021/06/04 03:50:28;;;;;;;13.07;7.78;;;;;;;21.25;40.98;102005.66;4163540;28;20488;-47
2021/06/04 03:52:29;;;;;;;10.02;6.85;;;;;;;21.55;40.56;102030.16;4173616;28;20036;-47
2021/06/04 03:54:34;;;;;;;9.50;7.32;;;;;;;21.41;41.27;102029.78;4163951;28;20034;-47
2021/06/04 03:56:36;;;;;;;10.63;7.53;;;;;;;21.22;41.36;102032.09;4165275;28;20037;-47
2021/06/04 03:58:37;;;;;;;10.40;6.40;;;;;;;21.60;40.38;102021.00;4171073;28;20032;-48
2021/06/04 04:00:54;;;;;;;11.13;6.63;;;;;;;21.59;40.49;102020.13;4146888;28;20034;-46
2021/06/04 04:02:56;;;;;;;9.48;5.80;;;;;;;21.92;40.09;102041.22;4166410;28;20115;-50
2021/06/04 04:04:58;;;;;;;8.60;6.70;;;;;;;21.49;40.96;102036.81;4175846;28;20056;-48
2021/06/04 04:06:59;;;;;;;11.43;6.70;;;;;;;21.37;41.01;102035.03;4161420;28;20033;-47
2021/06/04 04:09:00;;;;;;;7.35;5.35;;;;;;;21.90;39.82;102034.25;4164838;28;20117;-47
2021/06/04 04:11:01;;;;;;;9.27;7.88;;;;;;;21.11;41.57;102042.31;4172266;28;20026;-48
2021/06/04 04:13:01;;;;;;;10.10;6.55;;;;;;;21.49;40.67;102022.88;4167300;28;20041;-45
2021/06/04 04:15:05;;;;;;;9.75;5.90;;;;;;;21.91;39.38;102024.78;4165293;28;20095;-48
2021/06/04 04:17:05;;;;;;;13.07;7.75;;;;;;;21.43;41.01;102040.66;4162265;28;20041;-45
2021/06/04 04:19:06;;;;;;;10.38;5.97;;;;;;;21.30;41.20;102028.88;4172018;28;21261;-46
2021/06/04 04:21:09;;;;;;;9.70;6.13;;;;;;;21.68;40.14;102037.19;4172354;28;20033;-47
2021/06/04 04:23:13;;;;;;;10.55;6.50;;;;;;;21.27;41.29;102040.50;4165121;28;20107;-45
2021/06/04 04:25:15;;;;;;;11.85;7.70;;;;;;;21.30;41.32;102040.00;4164615;28;20032;-47
2021/06/04 04:27:15;;;;;;;13.77;8.52;;;;;;;21.31;41.52;102038.06;4161390;28;20035;-47
2021/06/04 04:29:16;;;;;;;15.93;9.27;;;;;;;21.10;42.18;102043.44;4168042;28;20067;-46
2021/06/04 04:31:20;;;;;;;12.88;8.60;;;;;;;21.13;41.92;102040.13;4175953;28;20400;-46
2021/06/04 04:33:21;;;;;;;14.75;10.15;;;;;;;21.17;41.66;102041.25;4167639;28;20076;-46
2021/06/04 04:35:26;;;;;;;11.23;8.88;;;;;;;21.18;41.81;102042.94;4168336;28;20091;-45
2021/06/04 04:37:26;;;;;;;16.40;8.43;;;;;;;21.68;40.26;102039.97;4173090;28;20736;-48
2021/06/04 04:39:33;;;;;;;12.70;10.13;;;;;;;21.27;41.56;102048.00;4169433;28;20099;-46
2021/06/04 04:41:34;;;;;;;11.23;7.32;;;;;;;21.34;41.52;102038.34;4164027;28;20037;-45
2021/06/04 04:43:38;;;;;;;17.55;9.98;;;;;;;21.10;42.27;102054.56;4133108;28;20053;-45
2021/06/04 04:45:39;;;;;;;16.02;9.35;;;;;;;21.26;41.81;102055.53;4135261;28;20038;-45
2021/06/04 04:47:40;;;;;;;14.35;8.73;;;;;;;21.47;41.19;102050.13;4129420;28;20106;-45
2021/06/04 04:49:40;;;;;;;18.05;9.48;;;;;;;21.31;41.64;102051.97;4131721;28;20029;-46
2021/06/04 04:51:41;;;;;;;16.95;9.13;;;;;;;21.44;41.33;102054.31;4133999;28;20038;-45
2021/06/04 04:53:43;;;;;;;13.75;8.48;;;;;;;21.62;40.81;102049.41;4129453;28;20030;-44
2021/06/04 04:55:43;;;;;;;15.55;8.63;;;;;;;21.73;40.30;102045.56;4132873;28;20049;-45
2021/06/04 04:57:44;;;;;;;13.93;8.25;;;;;;;21.36;41.38;102032.50;4137435;28;20034;-44
2021/06/04 04:59:45;;;;;;;16.17;8.40;;;;;;;21.67;40.59;102050.28;4130237;28;20073;-44
2021/06/04 05:01:46;;;;;;;14.10;8.43;;;;;;;21.55;40.80;102041.31;4134706;28;20030;-44
2021/06/04 05:03:47;;;;;;;11.82;7.95;;;;;;;21.60;40.93;102046.91;4131899;28;20496;-44
2021/06/04 05:05:48;;;;;;;12.90;7.35;;;;;;;21.80;40.38;102053.72;4133927;28;20029;-45
2021/06/04 05:07:49;;;;;;;12.63;7.22;;;;;;;21.76;40.42;102056.19;4129564;28;20043;-44
2021/06/04 05:09:50;;;;;;;13.35;7.90;;;;;;;21.68;40.51;102056.69;4136789;28;20092;-45
2021/06/04 05:11:50;;;;;;;12.43;7.47;;;;;;;21.79;40.47;102052.84;4134547;28;20117;-46
2021/06/04 05:13:51;;;;;;;14.75;8.38;;;;;;;21.60;40.99;102057.22;4140013;28;20448;-45
2021/06/04 05:15:52;;;;;;;11.98;7.10;;;;;;;21.62;40.66;102029.91;4135274;28;20575;-44
2021/06/04 05:17:52;;;;;;;12.75;6.53;;;;;;;21.92;40.00;102059.91;4136627;28;20074;-48
2021/06/04 05:19:54;;;;;;;16.75;8.57;;;;;;;21.47;41.38;102052.94;4133162;28;20030;-47
2021/06/04 05:21:55;;;;;;;22.50;7.28;;;;;;;21.44;41.46;102045.97;4131750;28;20631;-44
2021/06/04 05:23:56;;;;;;;9.88;7.00;;;;;;;21.78;40.47;102054.00;4128860;28;20508;-46
2021/06/04 05:25:56;;;;;;;11.50;6.35;;;;;;;21.73;40.95;102060.38;4145632;28;20042;-45
2021/06/04 05:27:57;;;;;;;10.60;6.72;;;;;;;21.64;41.00;102061.97;4138308;28;20035;-47
2021/06/04 05:29:57;;;;;;;9.15;5.50;;;;;;;21.91;40.05;102069.38;4129234;28;20026;-46
2021/06/04 05:31:58;;;;;;;9.48;5.93;;;;;;;21.85;40.40;102062.94;4138825;28;20034;-47
2021/06/04 05:33:59;;;;;;;11.02;6.88;;;;;;;21.85;40.36;102079.66;4136151;28;20124;-44
2021/06/04 05:36:03;;;;;;;9.98;6.13;;;;;;;21.99;40.38;102091.19;4139364;28;20033;-44
2021/06/04 05:38:04;;;;;;;12.02;6.00;;;;;;;21.89;40.88;102086.38;4129351;28;20130;-46
2021/06/04 05:40:12;;;;;;;9.27;5.88;;;;;;;21.90;40.74;102087.19;4140192;28;20053;-44
2021/06/04 05:42:13;;;;;;;10.60;6.65;;;;;;;21.82;40.86;102108.06;4142440;28;20133;-43
2021/06/04 05:44:17;;;;;;;13.55;5.70;;;;;;;21.99;40.26;102099.56;4159651;28;20049;-44
2021/06/04 05:46:20;;;;;;;10.00;5.90;;;;;;;21.93;40.52;102103.38;4153077;28;20041;-44
2021/06/04 05:48:22;;;;;;;11.27;6.20;;;;;;;21.96;40.66;102102.03;4156517;28;20098;-44
2021/06/04 05:50:27;;;;;;;11.02;6.75;;;;;;;21.95;40.65;102100.34;4161436;28;20969;-44
2021/06/04 05:52:27;;;;;;;6.95;5.68;;;;;;;22.07;40.39;102103.78;4149686;28;20052;-45
2021/06/04 05:54:28;;;;;;;11.38;6.18;;;;;;;21.97;40.69;102100.91;4158131;28;20033;-45
2021/06/04 05:56:28;;;;;;;9.18;5.60;;;;;;;21.76;41.24;102097.16;4158142;28;20037;-47
2021/06/04 05:58:29;;;;;;;9.38;5.45;;;;;;;21.82;40.96;102096.09;4152513;28;20042;-46
2021/06/04 06:00:35;;;;;;;10.77;5.88;;;;;;;21.64;41.30;102092.63;4157763;28;20049;-45
2021/06/04 06:02:35;;;;;;;9.00;5.72;;;;;;;21.52;42.05;102109.53;4150694;28;20083;-47
2021/06/04 06:04:37;;;;;;;11.82;5.90;;;;;;;21.49;42.16;102114.81;4156597;28;20415;-46
2021/06/04 06:06:37;;;;;;;11.00;6.05;;;;;;;21.51;42.07;102113.41;4154598;28;20087;-46
2021/06/04 06:08:37;;;;;;;11.43;5.78;;;;;;;21.88;40.87;102108.94;4153944;28;20041;-46
2021/06/04 06:10:38;;;;;;;9.57;5.82;;;;;;;21.84;40.98;102102.22;4150206;28;20049;-46
2021/06/04 06:12:40;;;;;;;13.52;6.25;;;;;;;21.69;41.75;102109.38;4146977;28;20036;-45
2021/06/04 06:14:40;;;;;;;8.85;5.45;;;;;;;21.97;40.57;102115.69;4153066;28;20538;-45
2021/06/04 06:16:41;;;;;;;9.45;5.63;;;;;;;21.82;41.04;102118.38;4153952;28;20053;-45
2021/06/04 06:18:41;;;;;;;9.68;5.75;;;;;;;21.88;41.32;102114.53;4151149;28;20728;-45
2021/06/04 06:20:44;;;;;;;10.73;5.95;;;;;;;21.81;41.12;102119.47;4149551;28;20037;-45
2021/06/04 06:22:44;;;;;;;8.20;5.78;;;;;;;21.69;41.30;102126.09;4151788;28;20035;-45
2021/06/04 06:24:45;;;;;;;9.65;4.95;;;;;;;21.94;40.85;102120.97;4150616;28;20048;-45
2021/06/04 06:26:46;;;;;;;9.38;5.47;;;;;;;22.03;40.42;102125.78;4161721;28;20037;-46
2021/06/04 06:28:46;;;;;;;13.73;5.97;;;;;;;21.91;40.88;102108.41;4149545;28;20032;-45
2021/06/04 06:30:48;;;;;;;8.32;5.20;;;;;;;22.07;40.95;102121.38;4151270;28;20105;-46
2021/06/04 06:32:49;;;;;;;9.88;6.40;;;;;;;21.70;42.56;102124.13;4152747;28;20042;-45
2021/06/04 06:34:49;;;;;;;9.10;5.13;;;;;;;22.09;40.58;102121.94;4152303;28;20854;-45
2021/06/04 06:36:50;;;;;;;11.80;5.60;;;;;;;22.08;41.48;102131.38;4156362;28;20087;-46
2021/06/04 06:38:50;;;;;;;9.85;4.93;;;;;;;21.99;41.84;102127.44;4152940;28;20115;-46
2021/06/04 06:40:52;;;;;;;9.77;5.93;;;;;;;21.96;41.87;102135.47;4153286;28;20045;-45
2021/06/04 06:42:53;;;;;;;12.93;6.30;;;;;;;21.61;42.60;102118.25;4165679;28;20049;-46
2021/06/04 06:44:53;;;;;;;11.60;6.22;;;;;;;21.71;42.56;102134.19;4166964;28;20120;-46
2021/06/04 06:46:54;;;;;;;15.15;6.32;;;;;;;21.71;42.47;102135.03;4166166;28;20032;-51
2021/06/04 06:48:55;;;;;;;14.05;7.20;;;;;;;21.51;43.09;102135.69;4165404;28;20037;-46
2021/06/04 06:50:56;;;;;;;13.57;6.88;;;;;;;21.86;41.75;102109.22;4169552;28;20033;-48
2021/06/04 06:53:03;;;;;;;12.93;6.57;;;;;;;21.68;42.56;102134.72;4178379;28;20336;-48
2021/06/04 06:55:06;;;;;;;11.52;6.80;;;;;;;21.86;42.48;102130.69;4169224;28;20047;-47
2021/06/04 06:57:07;;;;;;;10.13;6.45;;;;;;;22.01;41.40;102135.53;4165037;28;20029;-50
2021/06/04 06:59:08;;;;;;;10.95;6.65;;;;;;;21.36;43.42;102130.84;4163520;28;20090;-45
2021/06/04 07:01:09;;;;;;;12.10;6.05;;;;;;;21.61;42.67;102129.38;4169491;28;20038;-46
2021/06/04 07:03:12;;;;;;;11.70;6.03;;;;;;;21.80;42.43;102127.00;4168889;28;20025;-45
2021/06/04 07:05:13;;;;;;;13.90;6.25;;;;;;;21.79;42.42;102121.69;4171193;28;20037;-48
2021/06/04 07:07:15;;;;;;;16.42;6.75;;;;;;;21.80;42.65;102115.03;4171142;28;20087;-46
2021/06/04 07:09:17;;;;;;;9.73;5.00;;;;;;;22.03;41.93;102134.16;4175233;28;20116;-45
2021/06/04 07:11:18;;;;;;;7.63;5.95;;;;;;;21.99;42.20;102133.00;4169786;28;20480;-44
2021/06/04 07:13:25;;;;;;;10.88;5.70;;;;;;;21.94;42.11;102138.53;4170804;28;20051;-48
2021/06/04 07:15:27;;;;;;;9.25;5.10;;;;;;;21.75;42.22;102096.31;4152630;28;20030;-47
2021/06/04 07:17:29;;;;;;;10.70;5.18;;;;;;;22.21;41.17;102143.19;4167422;28;20136;-45
2021/06/04 07:19:30;;;;;;;9.35;5.80;;;;;;;22.14;41.33;102148.19;4165291;28;20041;-45
2021/06/04 07:21:32;;;;;;;12.88;6.03;;;;;;;21.97;42.17;102135.19;4165192;28;20041;-47
2021/06/04 07:23:34;;;;;;;9.43;5.20;;;;;;;22.18;41.19;102143.72;4166152;28;20076;-45
2021/06/04 07:25:40;;;;;;;7.80;5.00;;;;;;;22.21;41.30;102132.03;4164224;28;20040;-50
2021/06/04 07:27:46;;;;;;;9.27;6.35;;;;;;;22.12;41.79;102140.06;4164351;28;20029;-45
2021/06/04 07:29:47;;;;;;;10.20;6.47;;;;;;;22.19;41.79;102143.44;4163594;28;20087;-45
2021/06/04 07:31:48;;;;;;;10.00;5.07;;;;;;;22.21;41.53;102138.47;4168702;28;20475;-46
2021/06/04 07:33:52;;;;;;;9.98;5.18;;;;;;;22.16;41.51;102140.38;4168838;28;20068;-50
2021/06/04 07:35:54;;;;;;;7.00;4.68;;;;;;;22.05;41.36;102131.09;4164242;28;20029;-48
2021/06/04 07:37:56;;;;;;;8.40;4.85;;;;;;;22.25;41.46;102149.91;4163964;28;20391;-46
2021/06/04 07:39:56;;;;;;;7.97;5.15;;;;;;;22.25;41.21;102147.94;4176155;28;20033;-48
2021/06/04 07:41:59;;;;;;;9.50;5.10;;;;;;;22.30;41.25;102146.31;4165943;28;20040;-45
2021/06/04 07:44:00;;;;;;;7.32;5.32;;;;;;;22.35;41.27;102151.91;4164949;28;20026;-46
2021/06/04 07:46:01;;;;;;;12.00;5.57;;;;;;;22.36;41.09;102157.19;4164335;28;20069;-47
2021/06/04 07:48:01;;;;;;;7.53;5.13;;;;;;;22.43;40.75;102157.81;4169739;28;20036;-45
2021/06/04 07:50:04;;;;;;;8.32;5.30;;;;;;;22.28;41.55;102152.16;4172735;28;20528;-49
2021/06/04 07:52:06;;;;;;;8.60;5.53;;;;;;;22.39;40.96;102153.88;4163779;28;20535;-46
2021/06/04 07:54:09;;;;;;;8.73;4.97;;;;;;;22.30;40.97;102149.09;4167438;28;20509;-47
2021/06/04 07:56:13;;;;;;;7.00;4.40;;;;;;;22.27;40.82;102136.50;4168238;28;20045;-45
2021/06/04 07:58:14;;;;;;;5.70;4.45;;;;;;;22.35;41.28;102149.94;4154251;28;20029;-47
2021/06/04 08:00:26;;;;;;;6.28;4.35;;;;;;;22.33;41.20;102156.91;4171350;28;20022;-47
2021/06/04 08:02:27;;;;;;;8.95;5.20;;;;;;;22.23;41.80;102133.44;4165038;28;20095;-45
2021/06/04 08:04:27;;;;;;;9.05;4.75;;;;;;;22.34;41.26;102162.22;4174162;28;20028;-45
2021/06/04 08:06:28;;;;;;;8.27;5.32;;;;;;;22.04;42.72;102149.78;4170890;28;20025;-47
2021/06/04 08:08:29;;;;;;;6.38;4.88;;;;;;;22.32;41.29;102158.88;4166989;28;20029;-48
2021/06/04 08:10:31;;;;;;;6.28;4.53;;;;;;;22.35;41.44;102160.25;4167747;28;20531;-46
2021/06/04 08:12:31;;;;;;;5.97;4.65;;;;;;;22.38;41.15;102156.94;4163515;28;20037;-45
2021/06/04 08:14:32;;;;;;;10.05;5.13;;;;;;;22.43;41.42;102151.38;4170017;28;20118;-46
2021/06/04 08:16:37;;;;;;;8.05;5.25;;;;;;;22.44;41.33;102153.88;4166578;28;20037;-46
2021/06/04 08:18:39;;;;;;;5.78;5.18;;;;;;;22.50;41.22;102160.34;4164379;28;20040;-46
2021/06/04 08:20:39;;;;;;;8.93;5.60;;;;;;;22.48;41.01;102156.13;4169227;28;20053;-46
2021/06/04 08:22:44;;;;;;;7.07;4.63;;;;;;;22.37;41.64;102142.16;4166212;28;20033;-47
2021/06/04 08:24:45;;;;;;;9.35;5.45;;;;;;;22.45;41.35;102151.97;4163428;28;20402;-46
2021/06/04 08:26:46;;;;;;;10.05;5.20;;;;;;;22.47;41.12;102157.25;4170705;28;20130;-49
2021/06/04 08:28:47;;;;;;;6.78;4.55;;;;;;;22.48;40.90;102153.34;4162468;28;20578;-45
2021/06/04 08:30:49;;;;;;;7.60;4.60;;;;;;;22.43;41.28;102151.38;4160489;28;20047;-49
2021/06/04 08:32:50;;;;;;;10.80;5.72;;;;;;;22.55;41.25;102162.31;4159577;28;20029;-47
2021/06/04 08:34:50;;;;;;;8.73;4.90;;;;;;;22.50;41.29;102165.09;4162623;28;20037;-49
2021/06/04 08:36:50;;;;;;;9.10;5.45;;;;;;;22.60;41.15;102165.97;4159770;28;20045;-46
2021/06/04 08:38:51;;;;;;;13.85;5.88;;;;;;;22.54;41.24;102169.00;4162161;28;20070;-50
2021/06/04 08:40:52;;;;;;;13.05;6.00;;;;;;;22.52;41.71;102166.47;4162437;28;20400;-47
2021/06/04 08:43:24;;;;;;;7.35;5.15;;;;;;;22.51;41.98;102169.53;4169503;28;20057;-48
2021/06/04 08:45:40;;;;;;;11.70;5.57;;;;;;;22.48;42.25;102153.34;4167211;28;20061;-47
2021/06/04 08:47:45;;;;;;;11.05;5.97;;;;;;;22.73;41.67;102161.03;4167690;28;20446;-48
2021/06/04 08:50:07;;;;;;;8.75;5.95;;;;;;;22.65;42.00;102164.28;4164414;28;20738;-47
2021/06/04 08:52:39;;;;;;;18.08;6.03;;;;;;;22.75;42.03;102165.19;4165532;28;20028;-45
2021/06/04 08:55:01;;;;;;;13.57;6.78;;;;;;;22.78;41.51;102178.63;4163854;28;20033;-46
2021/06/04 08:57:10;;;;;;;11.18;6.00;;;;;;;22.79;41.81;102165.50;4166723;28;20038;-47
2021/06/04 08:59:14;;;;;;;10.68;6.35;;;;;;;22.91;41.55;102168.03;4170672;28;20039;-52
2021/06/04 09:01:21;;;;;;;20.15;5.22;;;;;;;22.87;41.89;102159.38;4162536;28;20395;-47
2021/06/04 09:03:35;;;;;;;11.75;4.85;;;;;;;22.97;41.18;102161.34;4160684;28;20424;-51
2021/06/04 09:05:42;;;;;;;5.43;4.40;;;;;;;22.96;40.93;102160.53;4165249;28;20029;-48
2021/06/04 09:07:46;;;;;;;11.48;4.55;;;;;;;22.91;40.96;102145.72;4162917;28;20388;-47
2021/06/04 09:10:05;;;;;;;8.73;4.90;;;;;;;23.01;40.54;102168.09;4171018;28;20053;-48
2021/06/04 09:12:45;;;;;;;4.93;4.47;;;;;;;23.08;40.71;102163.09;4165861;28;20041;-49
2021/06/04 09:14:48;;;;;;;8.10;4.32;;;;;;;23.07;40.85;102161.41;4161844;28;20045;-48
2021/06/04 09:17:04;;;;;;;8.25;4.43;;;;;;;23.16;40.83;102170.91;4167695;28;20589;-47
2021/06/04 09:19:33;;;;;;;5.18;4.18;;;;;;;23.15;40.68;102160.84;4167285;28;20078;-49
2021/06/04 09:21:36;;;;;;;8.00;4.35;;;;;;;23.20;40.62;102171.19;4172174;28;20188;-46
2021/06/04 09:23:38;;;;;;;5.93;4.82;;;;;;;23.21;40.44;102163.66;4166150;28;20083;-48
2021/06/04 09:25:39;;;;;;;8.75;5.03;;;;;;;23.19;40.62;102158.34;4161039;28;20072;-47
2021/06/04 09:27:44;;;;;;;5.80;5.20;;;;;;;23.25;39.95;102171.22;4163764;28;20033;-48
2021/06/04 09:30:04;;;;;;;7.95;4.75;;;;;;;23.20;40.18;102160.00;4164448;28;20614;-47
2021/06/04 09:32:22;;;;;;;8.05;4.90;;;;;;;23.31;40.44;102172.94;4162244;28;20049;-51
2021/06/04 09:34:31;;;;;;;6.10;4.20;;;;;;;23.38;40.12;102174.63;4169297;28;20033;-46
2021/06/04 09:36:48;;;;;;;5.60;4.65;;;;;;;23.38;40.22;102172.66;4167735;28;20509;-51
2021/06/04 09:38:55;;;;;;;5.20;4.60;;;;;;;23.41;40.28;102165.69;4165375;28;20044;-47